Time;durP1;ratioP1;P1;durP2;ratioP2;P2;SDS_P1;SDS_P2;PMS_P1;PMS_P2;Temp;Humidity;BMP_temperature;BMP_pressure;BME280_temperature;BME280_humidity;BME280_pressure;Samples;Min_cycle;Max_cycle;Signal;HPM_P1;HPM_P2
2023/07/25 00:00:45;;;;;;;3.00;2.80;;;21.50;52.70;;;;;;20660;6867;117341;31
2023/07/25 00:03:10;;;;;;;3.20;2.97;;;21.30;52.60;;;;;;20636;6867;117143;31
2023/07/25 00:05:36;;;;;;;3.03;2.92;;;21.00;53.10;;;;;;20445;6867;309403;31
2023/07/25 00:08:03;;;;;;;2.60;2.50;;;21.10;53.20;;;;;;20662;6867;120235;31
2023/07/25 00:10:28;;;;;;;3.23;3.03;;;21.00;53.20;;;;;;20446;6865;279183;31
2023/07/25 00:12:55;;;;;;;3.12;2.85;;;21.10;53.20;;;;;;20677;6866;122775;31
2023/07/25 00:15:19;;;;;;;3.20;2.90;;;21.00;53.30;;;;;;20433;6866;308891;31
2023/07/25 00:17:45;;;;;;;2.80;2.70;;;21.10;53.30;;;;;;20675;6866;117647;31
2023/07/25 00:20:11;;;;;;;3.17;2.90;;;21.00;53.30;;;;;;20442;6866;285513;31
2023/07/25 00:22:38;;;;;;;3.10;2.93;;;21.10;53.00;;;;;;20640;6866;117772;31
2023/07/25 00:25:03;;;;;;;2.77;2.60;;;21.00;53.20;;;;;;20635;6866;117671;31
2023/07/25 00:27:29;;;;;;;3.23;3.03;;;20.80;53.60;;;;;;20591;6866;121561;31
2023/07/25 00:29:54;;;;;;;3.10;2.87;;;20.50;53.90;;;;;;20433;6866;280247;31
2023/07/25 00:32:20;;;;;;;3.40;3.10;;;20.70;53.90;;;;;;20428;6866;309690;31
2023/07/25 00:34:45;;;;;;;3.07;2.70;;;21.10;53.50;;;;;;20637;6866;117405;31
2023/07/25 00:37:11;;;;;;;2.78;2.58;;;21.00;53.50;;;;;;20624;6866;150554;31
2023/07/25 00:39:37;;;;;;;3.03;2.83;;;20.80;53.80;;;;;;20647;6866;117605;31
2023/07/25 00:42:02;;;;;;;3.20;3.00;;;20.50;54.10;;;;;;20439;6866;278108;31
2023/07/25 00:44:28;;;;;;;2.53;2.43;;;20.70;54.10;;;;;;20660;6866;117062;31
2023/07/25 00:46:54;;;;;;;3.50;3.22;;;20.70;54.00;;;;;;20448;6866;295665;31
2023/07/25 00:49:20;;;;;;;3.37;3.17;;;20.90;53.80;;;;;;20428;6867;278445;31
2023/07/25 00:51:45;;;;;;;3.30;3.00;;;21.20;53.30;;;;;;20451;6867;278739;31
2023/07/25 00:54:11;;;;;;;2.60;2.40;;;21.40;52.70;;;;;;20658;6867;117315;31
2023/07/25 00:56:36;;;;;;;3.22;2.92;;;21.30;52.90;;;;;;20455;6867;279502;31
2023/07/25 00:59:02;;;;;;;3.40;3.03;;;21.30;52.80;;;;;;20654;6867;118296;31
2023/07/25 01:01:29;;;;;;;3.22;3.00;;;21.10;52.90;;;;;;20434;6867;283116;31
2023/07/25 01:03:55;;;;;;;2.92;2.72;;;21.20;52.90;;;;;;20451;6867;332195;31
2023/07/25 01:06:20;;;;;;;3.05;2.90;;;21.40;52.40;;;;;;20446;6867;338797;31
2023/07/25 01:08:49;;;;;;;3.25;3.10;;;21.60;51.90;;;;;;20664;6867;117055;31
2023/07/25 01:11:14;;;;;;;2.60;2.50;;;21.30;52.10;;;;;;20633;6867;119732;31
2023/07/25 01:13:40;;;;;;;2.92;2.67;;;20.90;52.60;;;;;;20665;6867;117788;31
2023/07/25 01:16:05;;;;;;;3.20;3.00;;;20.50;53.10;;;;;;20462;6867;308037;31
2023/07/25 01:18:31;;;;;;;2.67;2.58;;;20.60;53.50;;;;;;20667;6867;117028;31
2023/07/25 01:20:56;;;;;;;2.93;2.73;;;20.50;53.00;;;;;;20660;6867;118406;31
2023/07/25 01:23:23;;;;;;;3.70;3.40;;;20.30;53.90;;;;;;20417;6865;299006;31
2023/07/25 01:25:49;;;;;;;4.40;2.90;;;20.40;54.10;;;;;;20648;6866;117238;31
2023/07/25 01:28:14;;;;;;;3.28;3.08;;;20.30;54.10;;;;;;20448;6866;337862;31
2023/07/25 01:30:40;;;;;;;3.70;3.42;;;20.50;54.20;;;;;;20454;6866;279430;31
2023/07/25 01:33:05;;;;;;;3.50;3.30;;;20.70;53.80;;;;;;20443;6866;337225;31
2023/07/25 01:35:32;;;;;;;3.17;3.07;;;20.90;53.40;;;;;;20637;6866;117558;31
2023/07/25 01:37:58;;;;;;;3.20;3.00;;;20.80;53.50;;;;;;20445;6866;280339;31
2023/07/25 01:40:23;;;;;;;3.47;3.28;;;20.80;53.90;;;;;;20449;6866;308467;31
2023/07/25 01:42:49;;;;;;;3.30;3.10;;;20.90;53.70;;;;;;20447;6866;308432;31
2023/07/25 01:45:14;;;;;;;3.33;3.03;;;21.10;53.50;;;;;;20636;6866;123755;31
2023/07/25 01:47:40;;;;;;;3.03;2.83;;;20.80;53.50;;;;;;20662;6866;123487;31
2023/07/25 01:50:06;;;;;;;3.72;3.42;;;20.50;54.10;;;;;;20456;6866;281176;31
2023/07/25 01:52:31;;;;;;;3.10;2.90;;;20.50;54.50;;;;;;20655;6866;118613;31
2023/07/25 01:54:57;;;;;;;3.12;2.92;;;20.40;54.40;;;;;;20663;6866;117624;31
2023/07/25 01:57:22;;;;;;;2.83;2.62;;;20.10;54.60;;;;;;20640;6866;117547;31
2023/07/25 01:59:49;;;;;;;3.07;2.87;;;19.90;55.10;;;;;;20652;6867;117273;31
2023/07/25 02:02:13;;;;;;;3.72;3.53;;;19.70;55.40;;;;;;20439;6867;340614;31
2023/07/25 02:04:39;;;;;;;3.80;3.50;;;19.90;55.90;;;;;;20445;6867;308141;31
2023/07/25 02:07:05;;;;;;;3.70;3.50;;;20.40;55.50;;;;;;20447;6867;279226;31
2023/07/25 02:09:30;;;;;;;3.20;3.10;;;20.60;54.80;;;;;;20642;6867;119733;31
2023/07/25 02:11:58;;;;;;;3.20;3.00;;;20.40;54.80;;;;;;20659;6867;117627;31
2023/07/25 02:14:22;;;;;;;3.30;3.10;;;20.10;55.30;;;;;;20648;6867;117325;31
2023/07/25 02:16:49;;;;;;;3.60;3.40;;;19.90;55.80;;;;;;20440;6867;309343;31
2023/07/25 02:19:14;;;;;;;3.23;3.03;;;20.00;55.70;;;;;;20631;6867;117699;31
2023/07/25 02:21:40;;;;;;;3.37;3.17;;;20.00;55.50;;;;;;20651;6867;117289;31
2023/07/25 02:24:05;;;;;;;3.80;3.60;;;19.80;55.70;;;;;;20452;6867;281651;31
2023/07/25 02:26:31;;;;;;;3.60;3.40;;;19.90;55.90;;;;;;20455;6867;309120;31
2023/07/25 02:28:56;;;;;;;3.20;3.00;;;20.30;55.40;;;;;;20655;6867;117162;31
2023/07/25 02:31:22;;;;;;;3.20;3.00;;;20.10;55.20;;;;;;20638;6867;121558;31
2023/07/25 02:33:47;;;;;;;3.35;3.20;;;19.80;55.50;;;;;;20452;6865;338247;31
2023/07/25 02:36:13;;;;;;;3.00;2.80;;;19.90;55.80;;;;;;20662;6866;117086;31
2023/07/25 02:38:39;;;;;;;3.40;3.20;;;19.80;55.70;;;;;;20456;6866;308263;31
2023/07/25 02:41:04;;;;;;;3.23;3.03;;;19.90;55.70;;;;;;20665;6866;119640;31
2023/07/25 02:43:30;;;;;;;3.30;3.00;;;19.80;55.60;;;;;;20650;6866;117316;31
2023/07/25 02:45:55;;;;;;;3.03;2.90;;;19.60;56.10;;;;;;20658;6866;117620;31
2023/07/25 02:48:21;;;;;;;2.95;2.75;;;19.50;56.50;;;;;;20668;6866;116974;31
2023/07/25 02:50:46;;;;;;;3.20;3.00;;;19.40;56.70;;;;;;20450;6866;312570;31
2023/07/25 02:53:12;;;;;;;3.30;3.10;;;19.60;57.00;;;;;;20433;6866;279394;31
2023/07/25 02:55:38;;;;;;;3.17;2.97;;;20.00;56.30;;;;;;20655;6866;117743;31
2023/07/25 02:58:03;;;;;;;3.60;3.40;;;19.90;55.40;;;;;;20448;6866;307631;31
2023/07/25 03:00:29;;;;;;;3.90;3.60;;;20.00;55.50;;;;;;20444;6866;284008;31
2023/07/25 03:02:54;;;;;;;3.83;3.63;;;20.30;55.10;;;;;;20426;6866;296920;31
2023/07/25 03:05:20;;;;;;;3.60;3.07;;;20.50;54.80;;;;;;20636;6866;119592;31
2023/07/25 03:07:45;;;;;;;3.70;3.50;;;20.20;54.80;;;;;;20447;6866;309172;31
2023/07/25 03:10:11;;;;;;;3.50;3.30;;;20.20;55.20;;;;;;20657;6866;117017;31
2023/07/25 03:12:37;;;;;;;3.55;3.30;;;20.00;55.40;;;;;;20446;6867;280971;31
2023/07/25 03:15:04;;;;;;;3.20;3.00;;;20.00;55.50;;;;;;20657;6867;117391;31
2023/07/25 03:17:29;;;;;;;3.50;3.30;;;19.80;55.50;;;;;;20427;6867;337202;31
2023/07/25 03:19:55;;;;;;;3.62;3.40;;;19.90;55.80;;;;;;20462;6867;292809;31
2023/07/25 03:22:20;;;;;;;3.15;2.95;;;20.20;55.50;;;;;;20673;6867;117219;31
2023/07/25 03:24:46;;;;;;;3.37;3.17;;;20.00;55.30;;;;;;20460;6867;318341;31
2023/07/25 03:27:11;;;;;;;3.95;3.75;;;20.00;55.50;;;;;;20413;6867;341816;31
2023/07/25 03:29:37;;;;;;;3.58;3.28;;;20.20;54.90;;;;;;20667;6867;117668;31
2023/07/25 03:32:03;;;;;;;3.87;3.58;;;20.00;55.00;;;;;;20449;6867;293904;31
2023/07/25 03:34:28;;;;;;;3.70;3.50;;;20.00;55.20;;;;;;20443;6867;307881;31
2023/07/25 03:36:54;;;;;;;3.30;3.10;;;20.10;54.60;;;;;;20665;6867;117571;31
2023/07/25 03:39:20;;;;;;;3.93;3.60;;;20.00;54.80;;;;;;20429;6867;312293;31
2023/07/25 03:41:46;;;;;;;3.30;3.10;;;19.90;54.80;;;;;;20656;6867;123129;31
2023/07/25 03:44:12;;;;;;;3.73;3.40;;;19.80;55.10;;;;;;20443;6867;343195;31
2023/07/25 03:46:37;;;;;;;4.22;3.92;;;19.90;55.40;;;;;;20453;6865;308121;31
2023/07/25 03:49:03;;;;;;;3.70;3.50;;;20.10;55.10;;;;;;20674;6866;116942;31
2023/07/25 03:51:28;;;;;;;3.90;3.70;;;19.90;55.10;;;;;;20422;6866;442419;31
2023/07/25 03:53:54;;;;;;;3.90;3.70;;;20.00;55.60;;;;;;20464;6866;308366;31
2023/07/25 03:56:19;;;;;;;3.77;3.47;;;20.20;55.10;;;;;;20433;6866;311600;31
2023/07/25 03:58:45;;;;;;;3.80;3.50;;;20.40;54.80;;;;;;20440;6866;307927;31
2023/07/25 04:01:10;;;;;;;3.80;3.60;;;20.50;54.40;;;;;;20442;6866;277808;31
2023/07/25 04:03:36;;;;;;;3.85;3.65;;;20.60;54.00;;;;;;20456;6866;337786;31
2023/07/25 04:06:02;;;;;;;4.20;3.90;;;20.70;53.90;;;;;;20463;6866;281077;31
2023/07/25 04:08:28;;;;;;;3.60;3.40;;;20.80;53.50;;;;;;20675;6866;116992;31
2023/07/25 04:10:55;;;;;;;3.57;3.37;;;20.50;53.80;;;;;;20669;6866;117407;31
2023/07/25 04:13:21;;;;;;;3.83;3.53;;;20.10;54.50;;;;;;20438;6866;287793;31
2023/07/25 04:15:46;;;;;;;3.77;3.37;;;20.10;55.00;;;;;;20677;6866;117308;31
2023/07/25 04:18:12;;;;;;;4.10;3.80;;;20.00;55.20;;;;;;20678;6866;117687;31
2023/07/25 04:20:37;;;;;;;3.60;3.40;;;19.70;55.70;;;;;;20682;6866;116565;31
2023/07/25 04:23:03;;;;;;;3.30;3.10;;;19.50;56.20;;;;;;20675;6867;118299;31
2023/07/25 04:25:28;;;;;;;3.40;3.17;;;19.30;56.40;;;;;;20644;6867;116387;31
2023/07/25 04:27:54;;;;;;;3.78;3.58;;;19.20;56.60;;;;;;20661;6867;117217;31
2023/07/25 04:30:20;;;;;;;3.50;3.30;;;19.10;56.70;;;;;;20653;6867;117168;31
2023/07/25 04:32:45;;;;;;;4.22;4.03;;;19.00;56.80;;;;;;20469;6867;281913;31
2023/07/25 04:35:11;;;;;;;3.60;3.30;;;19.30;57.10;;;;;;20660;6867;117567;31
2023/07/25 04:37:36;;;;;;;3.83;3.63;;;19.20;56.60;;;;;;20671;6867;117211;31
2023/07/25 04:40:02;;;;;;;4.00;3.75;;;19.10;56.90;;;;;;20664;6867;119285;31
2023/07/25 04:42:28;;;;;;;3.67;3.47;;;19.00;57.10;;;;;;20658;6867;120852;31
2023/07/25 04:44:53;;;;;;;3.57;3.30;;;18.80;57.30;;;;;;20667;6867;118008;31
2023/07/25 04:47:19;;;;;;;4.20;3.90;;;18.70;57.60;;;;;;20646;6867;117596;31
2023/07/25 04:49:45;;;;;;;3.90;3.60;;;18.70;57.70;;;;;;20674;6867;117317;31
2023/07/25 04:52:10;;;;;;;4.97;4.47;;;18.60;57.80;;;;;;20473;6867;279921;31
2023/07/25 04:54:36;;;;;;;4.43;4.12;;;18.90;58.40;;;;;;20683;6867;117072;31
2023/07/25 04:57:01;;;;;;;3.83;3.63;;;18.90;58.00;;;;;;20700;6865;117542;31
2023/07/25 04:59:27;;;;;;;3.73;3.40;;;18.90;58.20;;;;;;20692;6866;118341;31
2023/07/25 05:01:54;;;;;;;4.73;4.43;;;18.80;58.50;;;;;;20481;6866;308773;31
2023/07/25 05:04:19;;;;;;;4.55;4.22;;;19.10;58.70;;;;;;20474;6866;309856;31
2023/07/25 05:06:45;;;;;;;4.28;4.03;;;19.60;57.90;;;;;;20686;6866;120043;31
2023/07/25 05:09:11;;;;;;;4.62;4.25;;;19.60;57.50;;;;;;20661;6866;117309;31
2023/07/25 05:11:37;;;;;;;4.28;3.97;;;19.40;57.70;;;;;;20695;6866;67607;31
2023/07/25 05:14:03;;;;;;;6.37;5.00;;;19.30;58.00;;;;;;20444;6866;309016;31
2023/07/25 05:16:28;;;;;;;5.87;5.30;;;19.50;58.90;;;;;;20468;6866;278477;31
2023/07/25 05:18:54;;;;;;;5.07;4.67;;;19.80;58.60;;;;;;20697;6866;67536;31
2023/07/25 05:21:20;;;;;;;5.20;4.80;;;19.70;58.20;;;;;;20655;6866;119469;31
2023/07/25 05:23:46;;;;;;;5.90;5.35;;;19.50;58.60;;;;;;20457;6866;310372;31
2023/07/25 05:26:13;;;;;;;4.90;4.43;;;19.60;59.60;;;;;;20669;6866;120748;31
2023/07/25 05:28:38;;;;;;;4.23;3.93;;;19.60;59.20;;;;;;20658;6866;121423;31
2023/07/25 05:31:04;;;;;;;4.70;4.30;;;19.40;59.50;;;;;;20448;6866;333721;31
2023/07/25 05:33:31;;;;;;;5.43;4.50;;;19.60;59.80;;;;;;20609;6866;117125;31
2023/07/25 05:36:03;;;;;;;4.70;4.40;;;19.60;59.30;;;;;;20440;6867;309132;31
2023/07/25 05:38:28;;;;;;;5.50;5.00;;;19.80;58.90;;;;;;20441;6867;279028;31
2023/07/25 05:40:54;;;;;;;4.60;4.30;;;20.20;57.60;;;;;;20658;6867;117129;31
2023/07/25 05:43:19;;;;;;;4.83;4.37;;;20.10;57.30;;;;;;20628;6867;119265;31
2023/07/25 05:45:45;;;;;;;5.20;4.80;;;19.80;57.90;;;;;;20450;6867;289732;31
2023/07/25 05:48:12;;;;;;;5.70;5.20;;;19.90;59.30;;;;;;20444;6867;342250;31
2023/07/25 05:50:37;;;;;;;5.40;4.93;;;20.20;59.20;;;;;;20652;6867;119621;31
2023/07/25 05:53:04;;;;;;;5.10;4.60;;;20.10;59.00;;;;;;20679;6867;121629;31
2023/07/25 05:55:30;;;;;;;5.03;4.60;;;19.80;59.40;;;;;;20653;6867;117387;31
2023/07/25 05:57:55;;;;;;;4.55;4.25;;;19.60;59.80;;;;;;20674;6867;118304;31
2023/07/25 06:00:22;;;;;;;5.20;4.70;;;19.50;60.10;;;;;;20658;6867;117793;31
2023/07/25 06:02:48;;;;;;;5.12;4.60;;;19.40;60.50;;;;;;20627;6867;117466;31
2023/07/25 06:05:13;;;;;;;5.93;5.43;;;19.40;60.70;;;;;;20432;6867;279781;31
2023/07/25 06:07:40;;;;;;;5.47;5.03;;;19.70;61.50;;;;;;20463;6865;307953;31
2023/07/25 06:10:06;;;;;;;5.67;5.20;;;20.10;60.90;;;;;;20667;6866;117483;31
2023/07/25 06:12:32;;;;;;;4.73;4.37;;;20.20;60.40;;;;;;20666;6866;117648;31
2023/07/25 06:14:57;;;;;;;4.87;4.47;;;20.10;60.60;;;;;;20664;6866;120358;31
2023/07/25 06:17:23;;;;;;;5.35;4.85;;;20.00;60.80;;;;;;20648;6866;119630;31
2023/07/25 06:19:48;;;;;;;4.93;4.57;;;19.90;61.00;;;;;;20666;6866;117253;31
2023/07/25 06:22:14;;;;;;;5.80;5.40;;;19.80;61.00;;;;;;20453;6866;312307;31
2023/07/25 06:24:40;;;;;;;5.63;5.13;;;20.10;61.20;;;;;;20624;6866;117074;31
2023/07/25 06:27:05;;;;;;;6.87;5.70;;;20.10;60.50;;;;;;20436;6866;296365;31
2023/07/25 06:29:31;;;;;;;5.83;5.43;;;20.30;60.30;;;;;;20425;6866;278683;31
2023/07/25 06:31:57;;;;;;;6.50;5.90;;;20.60;59.30;;;;;;20412;6866;312268;31
2023/07/25 06:34:22;;;;;;;5.68;5.15;;;20.90;58.70;;;;;;20465;6866;311476;31
2023/07/25 06:36:48;;;;;;;5.55;5.10;;;21.10;58.30;;;;;;20451;6866;308783;31
2023/07/25 06:39:14;;;;;;;5.53;5.13;;;21.30;57.90;;;;;;20432;6866;308761;31
2023/07/25 06:41:41;;;;;;;5.57;5.17;;;21.50;57.50;;;;;;20456;6866;308787;31
2023/07/25 06:44:07;;;;;;;5.97;5.47;;;21.60;56.70;;;;;;20446;6866;337591;31
2023/07/25 06:46:32;;;;;;;5.45;5.07;;;21.80;57.10;;;;;;20665;6867;117063;31
2023/07/25 06:48:58;;;;;;;5.13;4.77;;;21.60;57.10;;;;;;20667;6867;117112;31
2023/07/25 06:51:24;;;;;;;5.70;5.30;;;21.30;57.70;;;;;;20436;6867;313392;31
2023/07/25 06:53:50;;;;;;;5.03;4.73;;;21.30;58.30;;;;;;20667;6867;117626;31
2023/07/25 06:56:16;;;;;;;5.90;5.40;;;21.20;58.40;;;;;;20449;6867;283072;31
2023/07/25 06:58:42;;;;;;;6.15;5.75;;;21.30;58.80;;;;;;20447;6867;308585;31
2023/07/25 07:01:07;;;;;;;5.07;4.57;;;21.50;58.30;;;;;;20657;6867;117206;31
2023/07/25 07:03:33;;;;;;;4.80;4.47;;;21.50;58.40;;;;;;20640;6867;117188;31
2023/07/25 07:05:58;;;;;;;4.83;4.43;;;21.30;58.90;;;;;;20656;6867;117638;31
2023/07/25 07:08:24;;;;;;;5.87;5.40;;;21.20;59.50;;;;;;20450;6867;292823;31
2023/07/25 07:10:53;;;;;;;5.60;5.20;;;21.40;59.30;;;;;;20453;6867;341814;31
2023/07/25 07:13:18;;;;;;;6.00;5.50;;;21.70;58.10;;;;;;20446;6867;309620;31
2023/07/25 07:15:44;;;;;;;6.70;5.40;;;22.00;56.70;;;;;;20459;6867;278683;31
2023/07/25 07:18:09;;;;;;;4.70;4.30;;;22.20;56.60;;;;;;20654;6867;117317;31
2023/07/25 07:20:35;;;;;;;5.70;5.20;;;22.00;56.90;;;;;;20456;6865;280003;31
2023/07/25 07:23:00;;;;;;;4.80;4.40;;;21.90;57.30;;;;;;20666;6866;117007;31
2023/07/25 07:25:26;;;;;;;5.00;4.60;;;21.90;57.50;;;;;;20436;6866;278376;31
2023/07/25 07:27:52;;;;;;;4.78;4.47;;;21.90;57.00;;;;;;20458;6866;338777;31
2023/07/25 07:30:17;;;;;;;4.53;4.22;;;22.20;57.40;;;;;;20667;6866;117069;31
2023/07/25 07:32:43;;;;;;;4.30;3.90;;;22.00;57.30;;;;;;20677;6866;117289;31
2023/07/25 07:35:08;;;;;;;5.40;4.90;;;21.80;57.60;;;;;;20461;6866;308410;31
2023/07/25 07:37:34;;;;;;;4.80;3.70;;;21.80;57.60;;;;;;20667;6866;117207;31
2023/07/25 07:39:59;;;;;;;5.40;4.47;;;21.70;57.50;;;;;;20460;6866;308763;31
2023/07/25 07:42:25;;;;;;;5.03;4.73;;;21.80;58.20;;;;;;20444;6866;298277;31
2023/07/25 07:44:50;;;;;;;4.40;4.10;;;22.10;58.10;;;;;;20672;6866;117040;31
2023/07/25 07:47:16;;;;;;;5.10;4.70;;;22.00;57.90;;;;;;20444;6866;282185;31
2023/07/25 07:49:42;;;;;;;5.18;4.78;;;22.20;58.50;;;;;;20449;6866;339647;31
2023/07/25 07:52:07;;;;;;;5.28;4.22;;;22.50;58.00;;;;;;20452;6866;312773;31
2023/07/25 07:54:33;;;;;;;5.00;4.40;;;22.80;56.30;;;;;;20453;6866;278530;31
2023/07/25 07:56:58;;;;;;;4.80;4.40;;;22.90;55.50;;;;;;20456;6866;342172;31
2023/07/25 07:59:24;;;;;;;4.40;4.10;;;23.00;55.60;;;;;;20433;6867;309041;31
2023/07/25 08:01:50;;;;;;;4.18;3.92;;;23.20;55.60;;;;;;20670;6867;117783;31
2023/07/25 08:04:16;;;;;;;4.25;3.95;;;22.80;55.70;;;;;;20666;6867;117134;31
2023/07/25 08:06:42;;;;;;;4.53;4.13;;;22.50;56.40;;;;;;20444;6867;311172;31
2023/07/25 08:09:08;;;;;;;4.20;3.90;;;22.50;57.60;;;;;;20670;6867;117816;31
2023/07/25 08:11:33;;;;;;;5.12;4.03;;;22.50;57.70;;;;;;20645;6867;119519;31
2023/07/25 08:13:58;;;;;;;5.10;4.60;;;22.30;58.00;;;;;;20450;6867;304815;31
2023/07/25 08:16:24;;;;;;;4.30;3.93;;;22.60;57.90;;;;;;20461;6867;335138;31
2023/07/25 08:18:50;;;;;;;4.55;4.20;;;22.90;56.20;;;;;;20461;6867;307893;31
2023/07/25 08:21:15;;;;;;;4.60;4.30;;;23.30;56.30;;;;;;20448;6867;281669;31
2023/07/25 08:23:41;;;;;;;3.97;3.67;;;23.80;58.10;;;;;;20688;6867;117707;31
2023/07/25 08:26:06;;;;;;;3.53;3.10;;;24.10;57.90;;;;;;20693;6867;123013;31
2023/07/25 08:28:32;;;;;;;3.60;3.30;;;24.20;57.50;;;;;;20461;6867;281419;31
2023/07/25 08:31:01;;;;;;;3.70;3.40;;;24.70;56.20;;;;;;20664;6865;123366;31
2023/07/25 08:33:26;;;;;;;3.70;3.40;;;25.00;55.40;;;;;;20428;6866;308671;31
2023/07/25 08:35:53;;;;;;;10.30;3.87;;;25.20;53.20;;;;;;20641;6866;117327;31
2023/07/25 08:38:17;;;;;;;3.80;3.60;;;25.10;52.50;;;;;;20447;6866;309140;31
2023/07/25 08:40:43;;;;;;;3.13;2.80;;;25.10;51.80;;;;;;20669;6866;117105;31
2023/07/25 08:43:11;;;;;;;3.62;3.33;;;25.00;52.40;;;;;;20436;6866;279323;31
2023/07/25 08:45:35;;;;;;;3.80;3.50;;;25.00;52.30;;;;;;20305;6875;339229;31
2023/07/25 08:48:01;;;;;;;3.45;3.20;;;25.20;51.70;;;;;;20478;6855;341266;31
2023/07/25 08:50:26;;;;;;;3.42;3.12;;;25.30;51.80;;;;;;20478;6855;279143;31
2023/07/25 08:52:52;;;;;;;3.30;2.87;;;25.40;50.80;;;;;;20687;6855;117111;31
2023/07/25 08:55:17;;;;;;;2.80;2.60;;;25.20;51.40;;;;;;20675;6855;117538;31
2023/07/25 08:57:44;;;;;;;3.33;3.10;;;24.80;52.10;;;;;;20502;6855;278664;31
2023/07/25 09:00:10;;;;;;;3.15;2.85;;;24.80;51.60;;;;;;20476;6855;342359;31
2023/07/25 09:02:35;;;;;;;2.83;2.70;;;25.00;51.20;;;;;;20688;6855;117577;31
2023/07/25 09:05:01;;;;;;;2.85;2.70;;;25.00;52.30;;;;;;20466;6855;337364;31
2023/07/25 09:07:26;;;;;;;5.23;2.23;;;25.20;52.60;;;;;;20679;6855;117802;31
2023/07/25 09:09:52;;;;;;;2.53;2.30;;;25.20;52.40;;;;;;20707;6855;120497;31
2023/07/25 09:12:19;;;;;;;2.40;2.20;;;25.10;52.90;;;;;;20487;6855;308335;31
2023/07/25 09:14:44;;;;;;;2.37;2.10;;;25.20;52.60;;;;;;20700;6855;121994;31
2023/07/25 09:17:11;;;;;;;2.47;2.27;;;25.20;53.30;;;;;;20458;6855;307932;31
2023/07/25 09:19:41;;;;;;;1.60;1.60;;;25.30;53.30;;;;;;20711;6855;117223;31
2023/07/25 09:22:06;;;;;;;1.80;1.70;;;25.40;52.50;;;;;;20710;6855;120611;31
2023/07/25 09:24:38;;;;;;;1.50;1.40;;;25.50;51.90;;;;;;20410;6855;309155;31
2023/07/25 09:27:05;;;;;;;1.47;1.37;;;25.80;50.70;;;;;;20485;6855;308745;31
2023/07/25 09:29:30;;;;;;;1.60;1.50;;;26.30;47.90;;;;;;20425;6855;292866;31
2023/07/25 09:31:55;;;;;;;1.40;1.30;;;26.60;47.10;;;;;;20478;6855;309241;31
2023/07/25 09:34:25;;;;;;;1.50;1.40;;;26.80;45.60;;;;;;20483;6855;337690;31
2023/07/25 09:36:49;;;;;;;2.03;1.42;;;27.10;44.80;;;;;;20476;6855;311626;31
2023/07/25 09:39:15;;;;;;;1.60;1.58;;;27.20;44.60;;;;;;20458;6855;299321;31
2023/07/25 09:41:41;;;;;;;1.50;1.40;;;27.40;45.00;;;;;;20685;6855;119782;31
2023/07/25 09:44:07;;;;;;;1.77;1.40;;;27.20;45.40;;;;;;20483;6853;284805;31
2023/07/25 09:46:33;;;;;;;1.40;1.30;;;27.20;44.80;;;;;;20695;6854;116997;31
2023/07/25 09:48:58;;;;;;;2.43;1.27;;;27.10;45.50;;;;;;20696;6854;117016;31
2023/07/25 09:51:24;;;;;;;1.40;1.40;;;26.90;46.10;;;;;;20677;6855;119167;31
2023/07/25 09:53:49;;;;;;;1.10;1.10;;;26.70;46.00;;;;;;20691;6855;117265;31
2023/07/25 09:56:15;;;;;;;1.33;1.30;;;26.50;46.70;;;;;;20474;6855;312735;31
2023/07/25 09:58:41;;;;;;;1.40;1.40;;;26.60;46.80;;;;;;20481;6855;304148;31
2023/07/25 10:01:06;;;;;;;1.60;1.50;;;26.90;45.10;;;;;;20458;6855;341655;31
2023/07/25 10:03:32;;;;;;;1.70;1.60;;;27.30;44.40;;;;;;20459;6855;282101;31
2023/07/25 10:05:57;;;;;;;1.90;1.80;;;27.40;43.00;;;;;;20476;6855;311298;31
2023/07/25 10:08:26;;;;;;;1.70;1.60;;;27.60;41.80;;;;;;20694;6855;117153;31
2023/07/25 10:10:52;;;;;;;1.80;1.70;;;27.40;42.50;;;;;;20480;6855;317324;31
2023/07/25 10:13:17;;;;;;;1.80;1.70;;;27.30;41.30;;;;;;20464;6855;279498;31
2023/07/25 10:15:43;;;;;;;1.73;1.43;;;27.40;41.50;;;;;;20701;6855;120796;31
2023/07/25 10:18:18;;;;;;;2.10;1.92;;;27.30;41.60;;;;;;20485;6855;338318;31
2023/07/25 10:20:43;;;;;;;1.67;1.57;;;27.30;40.90;;;;;;20491;6855;278290;31
2023/07/25 10:23:09;;;;;;;2.00;1.90;;;27.50;41.60;;;;;;20479;6855;307378;31
2023/07/25 10:25:34;;;;;;;2.20;2.00;;;27.70;42.60;;;;;;20628;6879;120517;31
2023/07/25 10:28:00;;;;;;;1.77;1.67;;;27.70;42.10;;;;;;20671;6867;116332;31
2023/07/25 10:30:25;;;;;;;1.85;1.75;;;27.50;42.30;;;;;;20440;6867;279852;31
2023/07/25 10:32:54;;;;;;;2.27;1.80;;;27.60;41.00;;;;;;20657;6867;119618;31
2023/07/25 10:35:42;;;;;;;2.10;1.90;;;27.50;41.10;;;;;;20422;6867;310094;31
2023/07/25 10:38:08;;;;;;;2.10;1.90;;;27.50;40.70;;;;;;20662;6867;120310;31
2023/07/25 10:40:33;;;;;;;3.37;1.97;;;27.30;41.90;;;;;;20617;6867;120686;31
2023/07/25 10:42:59;;;;;;;1.87;1.70;;;27.00;41.50;;;;;;20589;6867;123250;31
2023/07/25 10:45:28;;;;;;;2.78;1.98;;;26.80;41.70;;;;;;20390;6867;314296;31
2023/07/25 10:47:54;;;;;;;1.80;1.70;;;26.90;40.70;;;;;;20653;6867;119419;31
2023/07/25 10:50:20;;;;;;;1.50;1.40;;;26.90;40.60;;;;;;20654;6867;117043;31
2023/07/25 10:52:46;;;;;;;1.80;1.70;;;26.60;40.70;;;;;;20640;6867;118316;31
2023/07/25 10:55:11;;;;;;;3.23;1.73;;;26.30;41.10;;;;;;20641;6865;122828;31
2023/07/25 10:57:37;;;;;;;3.35;1.60;;;26.10;41.60;;;;;;20452;6866;313010;31
2023/07/25 11:00:09;;;;;;;1.95;1.85;;;26.20;41.00;;;;;;20449;6866;308868;31
2023/07/25 11:02:34;;;;;;;1.90;1.40;;;26.50;40.60;;;;;;20624;6866;116972;31
2023/07/25 11:05:16;;;;;;;2.40;1.50;;;26.50;40.80;;;;;;20602;6866;117304;31
2023/07/25 11:07:45;;;;;;;4.23;1.87;;;26.30;41.30;;;;;;20596;6866;117776;31
2023/07/25 11:10:10;;;;;;;2.73;1.70;;;26.10;42.50;;;;;;20446;6866;278817;31
2023/07/25 11:12:36;;;;;;;2.00;1.90;;;26.10;46.70;;;;;;20660;6866;117159;31
2023/07/25 11:15:02;;;;;;;1.60;1.50;;;26.00;46.00;;;;;;20654;6866;117103;31
2023/07/25 11:17:27;;;;;;;1.67;1.57;;;25.80;47.10;;;;;;20417;6866;278410;31
2023/07/25 11:19:53;;;;;;;1.67;1.30;;;26.10;49.50;;;;;;20608;6866;117271;31
2023/07/25 11:22:18;;;;;;;2.00;1.43;;;26.20;47.80;;;;;;20652;6866;117693;31
2023/07/25 11:24:44;;;;;;;1.95;1.80;;;26.00;46.60;;;;;;20438;6866;279507;31
2023/07/25 11:27:09;;;;;;;2.60;1.40;;;26.20;46.40;;;;;;20379;6866;279537;31
2023/07/25 11:29:35;;;;;;;1.50;1.40;;;26.30;45.40;;;;;;20444;6866;279944;31
2023/07/25 11:32:01;;;;;;;1.37;1.17;;;26.60;44.80;;;;;;20631;6867;121654;31
2023/07/25 11:34:26;;;;;;;2.08;1.40;;;26.40;44.70;;;;;;20376;6867;280638;31
2023/07/25 11:36:52;;;;;;;1.50;1.40;;;26.40;44.10;;;;;;20435;6867;309684;31
2023/07/25 11:39:17;;;;;;;1.48;1.15;;;26.60;42.20;;;;;;20635;6867;133059;31
2023/07/25 11:41:44;;;;;;;1.50;1.40;;;26.40;42.30;;;;;;20437;6867;283457;31
2023/07/25 11:44:13;;;;;;;1.40;1.30;;;26.30;41.10;;;;;;20421;6867;311265;31
2023/07/25 11:46:38;;;;;;;1.40;1.30;;;26.50;42.30;;;;;;20608;6867;119286;31
2023/07/25 11:49:04;;;;;;;1.25;1.20;;;26.50;42.60;;;;;;20403;6867;339247;31
2023/07/25 11:51:29;;;;;;;1.37;1.27;;;26.70;41.40;;;;;;20542;6867;120306;31
2023/07/25 11:53:55;;;;;;;1.40;1.30;;;26.70;41.40;;;;;;20603;6867;117596;31
2023/07/25 11:56:20;;;;;;;1.00;0.93;;;26.70;41.70;;;;;;20629;6867;117078;31
2023/07/25 11:58:47;;;;;;;1.10;1.10;;;26.90;42.30;;;;;;20567;6867;117152;31
2023/07/25 12:01:11;;;;;;;1.20;1.10;;;26.90;41.10;;;;;;20366;6867;281681;31
2023/07/25 12:03:37;;;;;;;2.25;1.17;;;27.20;38.10;;;;;;20425;6867;312454;31
2023/07/25 12:06:03;;;;;;;1.50;1.40;;;27.50;37.10;;;;;;20365;6865;312257;31
2023/07/25 12:08:34;;;;;;;1.00;1.00;;;27.70;36.00;;;;;;20651;6866;117753;31
2023/07/25 12:11:00;;;;;;;1.97;1.13;;;27.60;36.70;;;;;;20649;6866;117095;31
2023/07/25 12:13:27;;;;;;;1.40;1.30;;;27.30;37.60;;;;;;20395;6866;338888;31
2023/07/25 12:15:55;;;;;;;2.35;1.35;;;27.40;37.60;;;;;;20441;6866;338304;31
2023/07/25 12:18:30;;;;;;;2.47;1.20;;;27.70;37.20;;;;;;20443;6866;312305;31
2023/07/25 12:20:57;;;;;;;1.60;1.25;;;28.00;36.60;;;;;;20449;6866;309244;31
2023/07/25 12:23:26;;;;;;;2.10;1.40;;;28.10;35.70;;;;;;20425;6866;279571;31
2023/07/25 12:25:51;;;;;;;1.50;1.40;;;28.20;35.60;;;;;;20402;6866;313388;31
2023/07/25 12:28:17;;;;;;;1.77;1.20;;;28.30;35.90;;;;;;20657;6866;117036;31
2023/07/25 12:30:42;;;;;;;1.33;1.27;;;28.10;36.60;;;;;;20437;6866;302691;31
2023/07/25 12:33:08;;;;;;;1.07;1.00;;;28.00;36.20;;;;;;20673;6866;119113;31
2023/07/25 12:35:34;;;;;;;1.37;1.30;;;27.80;36.60;;;;;;20425;6866;309880;31
2023/07/25 12:37:59;;;;;;;1.20;1.07;;;27.90;36.90;;;;;;20660;6866;121847;31
2023/07/25 12:40:25;;;;;;;1.37;1.30;;;27.80;37.10;;;;;;20451;6866;316499;31